Reno, NV (89501)

3:21 PM PDT on October 31, 2014 (GMT -0700)
UNR Campus, LMR Roof | Change Station
CLOSE
Current Station
Personal Weather Station
Location: Reno, NV
Elevation: 4570 ft
Nearby Weather Stations

Elev 4570 ft 39.54 °N, 119.81 °W | Updated 26 seconds ago

Scattered Clouds
Scattered Clouds
64.6 °F
Feels Like 64.6 °F
N
4.9
Wind Variable Wind from WSW
Gusts 19.1 mph

Today
High -- | Low -- °F
--% Chance of Precip.
Yesterday
High -- | Low -- °F
Precip. -- in
7:26 AM 5:58 PM
First Quarter, 59% visible
Pressure 29.60 in
Visibility 10.0 miles
Clouds Few 7000 ft
Scattered Clouds 10000 ft
Scattered Clouds 14000 ft
Dew Point 36 °F
Humidity 34%
Rainfall 0.00 in
Snow Depth Not available.
UV 2 out of 12
Pollen 2.50 out of 12
Air Quality Not available.
Flu Activity Not available.
METAR KRNO 312155Z 22012KT 10SM FEW070 SCT100 SCT140 21/M02 A2972 RMK AO2 SLP022 ACSL ALQDS FU HZ DSNT SW T02111022

More Conditions Fewer Conditions

Pressure 29.60 in
Visibility 10.0 miles
Clouds Few 7000 ft
Scattered Clouds 10000 ft
Scattered Clouds 14000 ft
Dew Point 36 °F
Humidity 34%
Rainfall 0.00 in
Snow Depth Not available.
UV 2 out of 12
Pollen 2.50 out of 12
Air Quality Not available.
Flu Activity Not available.
METAR KRNO 312155Z 22012KT 10SM FEW070 SCT100 SCT140 21/M02 A2972 RMK AO2 SLP022 ACSL ALQDS FU HZ DSNT SW T02111022

More Conditions Fewer Conditions

10-Day Weather Forecast

Almanac

Astronomy

Oct. 31, 2014 Rise Set
Actual Time
Civil Twilight
Nautical Twilight
Astronomical Twilight
Moon
Length of Visible Light
Length of Day
Tomorrow will be .
, % of the Moon is Illuminated

Today's Extremes

State Highs State Lows

Community

WunderPhotos

Upload Photos

1,766,757 photos uploaded!

WunderBlogs® & News

Nearby

Air Quality

  Air Quality AQ Index Pollutant
Not available.

Snow Depth

Station Depth Elevation

Earthquake Activity

City Distance Mag. Time & Date
Minimum magnitude displayed is 2.5.

Coastal Water Temperatures

Place Temperature

Nearby Weather Stations